sensor_id;sensor_type;location;lat;lon;timestamp;temperature;humidity
22416;DHT22;12204;50.600;4.608;2022-08-19T00:04:53;28.30;59.90
22416;DHT22;12204;50.600;4.608;2022-08-19T00:09:58;28.30;59.90
22416;DHT22;12204;50.600;4.608;2022-08-19T00:15:03;28.30;59.80
22416;DHT22;12204;50.600;4.608;2022-08-19T00:20:14;28.20;59.70
22416;DHT22;12204;50.600;4.608;2022-08-19T00:25:23;28.20;59.80
22416;DHT22;12204;50.600;4.608;2022-08-19T00:30:31;28.30;59.80
22416;DHT22;12204;50.600;4.608;2022-08-19T00:35:35;28.20;59.80
22416;DHT22;12204;50.600;4.608;2022-08-19T00:40:44;28.20;59.80
22416;DHT22;12204;50.600;4.608;2022-08-19T00:45:48;28.20;59.80
22416;DHT22;12204;50.600;4.608;2022-08-19T00:50:53;28.20;59.80
22416;DHT22;12204;50.600;4.608;2022-08-19T00:56:01;28.20;59.90
22416;DHT22;12204;50.600;4.608;2022-08-19T01:01:08;28.20;60.00
22416;DHT22;12204;50.600;4.608;2022-08-19T01:06:13;28.20;60.00
22416;DHT22;12204;50.600;4.608;2022-08-19T01:11:23;28.20;60.00
22416;DHT22;12204;50.600;4.608;2022-08-19T01:16:28;28.20;59.90
22416;DHT22;12204;50.600;4.608;2022-08-19T01:21:37;28.20;60.00
22416;DHT22;12204;50.600;4.608;2022-08-19T01:26:47;28.20;59.90
22416;DHT22;12204;50.600;4.608;2022-08-19T01:31:51;28.20;59.90
22416;DHT22;12204;50.600;4.608;2022-08-19T01:36:55;28.20;59.90
22416;DHT22;12204;50.600;4.608;2022-08-19T01:42:00;28.20;60.00
22416;DHT22;12204;50.600;4.608;2022-08-19T01:47:05;28.20;60.00
22416;DHT22;12204;50.600;4.608;2022-08-19T01:52:10;28.20;60.00
22416;DHT22;12204;50.600;4.608;2022-08-19T01:57:15;28.20;60.00
22416;DHT22;12204;50.600;4.608;2022-08-19T02:02:19;28.20;60.00
22416;DHT22;12204;50.600;4.608;2022-08-19T02:07:23;28.20;60.00
22416;DHT22;12204;50.600;4.608;2022-08-19T02:12:28;28.20;59.90
22416;DHT22;12204;50.600;4.608;2022-08-19T02:17:32;28.10;59.90
22416;DHT22;12204;50.600;4.608;2022-08-19T02:22:37;28.10;59.90
22416;DHT22;12204;50.600;4.608;2022-08-19T02:27:44;28.20;59.90
22416;DHT22;12204;50.600;4.608;2022-08-19T02:32:50;28.10;59.80
22416;DHT22;12204;50.600;4.608;2022-08-19T02:37:54;28.10;59.80
22416;DHT22;12204;50.600;4.608;2022-08-19T02:43:17;28.10;59.80
22416;DHT22;12204;50.600;4.608;2022-08-19T02:48:24;28.10;59.80
22416;DHT22;12204;50.600;4.608;2022-08-19T02:53:29;28.10;59.70
22416;DHT22;12204;50.600;4.608;2022-08-19T02:58:34;28.10;59.70
22416;DHT22;12204;50.600;4.608;2022-08-19T03:03:39;28.10;59.60
22416;DHT22;12204;50.600;4.608;2022-08-19T03:08:44;28.10;59.50
22416;DHT22;12204;50.600;4.608;2022-08-19T03:13:52;28.10;59.40
22416;DHT22;12204;50.600;4.608;2022-08-19T03:18:57;28.10;59.40
22416;DHT22;12204;50.600;4.608;2022-08-19T03:24:04;28.10;59.40
22416;DHT22;12204;50.600;4.608;2022-08-19T03:29:12;28.00;59.30
22416;DHT22;12204;50.600;4.608;2022-08-19T03:34:28;28.10;59.40
22416;DHT22;12204;50.600;4.608;2022-08-19T03:39:35;28.00;59.30
22416;DHT22;12204;50.600;4.608;2022-08-19T03:44:42;28.00;59.40
22416;DHT22;12204;50.600;4.608;2022-08-19T03:49:46;28.00;59.30
22416;DHT22;12204;50.600;4.608;2022-08-19T03:54:50;28.00;59.30
22416;DHT22;12204;50.600;4.608;2022-08-19T03:59:55;28.00;59.30
22416;DHT22;12204;50.600;4.608;2022-08-19T04:05:06;28.00;59.40
22416;DHT22;12204;50.600;4.608;2022-08-19T04:10:11;28.00;59.30
22416;DHT22;12204;50.600;4.608;2022-08-19T04:15:16;28.00;59.40
22416;DHT22;12204;50.600;4.608;2022-08-19T04:20:20;28.00;59.30
22416;DHT22;12204;50.600;4.608;2022-08-19T04:25:24;28.00;59.40
22416;DHT22;12204;50.600;4.608;2022-08-19T04:30:29;28.00;59.30
22416;DHT22;12204;50.600;4.608;2022-08-19T04:35:36;28.00;59.30
22416;DHT22;12204;50.600;4.608;2022-08-19T04:40:42;28.00;59.30
22416;DHT22;12204;50.600;4.608;2022-08-19T04:46:08;28.00;59.30
22416;DHT22;12204;50.600;4.608;2022-08-19T04:51:35;28.00;59.20
22416;DHT22;12204;50.600;4.608;2022-08-19T04:56:39;27.90;59.10
22416;DHT22;12204;50.600;4.608;2022-08-19T05:01:45;27.90;59.10
22416;DHT22;12204;50.600;4.608;2022-08-19T05:06:51;27.90;59.10
22416;DHT22;12204;50.600;4.608;2022-08-19T05:12:02;27.90;58.90
22416;DHT22;12204;50.600;4.608;2022-08-19T05:17:08;27.90;58.80
22416;DHT22;12204;50.600;4.608;2022-08-19T05:22:29;27.90;58.90
22416;DHT22;12204;50.600;4.608;2022-08-19T05:27:37;27.90;58.80
22416;DHT22;12204;50.600;4.608;2022-08-19T05:32:42;27.90;58.70
22416;DHT22;12204;50.600;4.608;2022-08-19T05:37:46;27.90;58.90
22416;DHT22;12204;50.600;4.608;2022-08-19T05:42:55;27.90;58.90
22416;DHT22;12204;50.600;4.608;2022-08-19T05:48:00;27.90;58.90
22416;DHT22;12204;50.600;4.608;2022-08-19T05:53:04;27.90;59.00
22416;DHT22;12204;50.600;4.608;2022-08-19T05:58:08;27.90;59.00
22416;DHT22;12204;50.600;4.608;2022-08-19T06:03:13;27.90;59.10
22416;DHT22;12204;50.600;4.608;2022-08-19T06:08:18;27.90;59.10
22416;DHT22;12204;50.600;4.608;2022-08-19T06:13:35;27.90;59.10
22416;DHT22;12204;50.600;4.608;2022-08-19T06:18:40;27.80;59.00
22416;DHT22;12204;50.600;4.608;2022-08-19T06:23:45;27.80;59.10
22416;DHT22;12204;50.600;4.608;2022-08-19T06:28:50;27.80;59.20
22416;DHT22;12204;50.600;4.608;2022-08-19T06:33:55;27.80;59.10
22416;DHT22;12204;50.600;4.608;2022-08-19T06:39:02;27.80;59.10
22416;DHT22;12204;50.600;4.608;2022-08-19T06:44:08;27.80;59.20
22416;DHT22;12204;50.600;4.608;2022-08-19T06:49:17;27.80;59.20
22416;DHT22;12204;50.600;4.608;2022-08-19T06:54:20;27.80;59.20
22416;DHT22;12204;50.600;4.608;2022-08-19T06:59:32;27.80;59.20
22416;DHT22;12204;50.600;4.608;2022-08-19T07:04:38;27.80;59.20
22416;DHT22;12204;50.600;4.608;2022-08-19T07:09:43;27.80;59.00
22416;DHT22;12204;50.600;4.608;2022-08-19T07:15:01;27.80;59.10
22416;DHT22;12204;50.600;4.608;2022-08-19T07:20:10;27.80;59.30
22416;DHT22;12204;50.600;4.608;2022-08-19T07:25:15;27.80;59.10
22416;DHT22;12204;50.600;4.608;2022-08-19T07:30:19;27.80;59.00
22416;DHT22;12204;50.600;4.608;2022-08-19T07:35:28;27.80;58.90
22416;DHT22;12204;50.600;4.608;2022-08-19T07:40:34;27.80;58.90
22416;DHT22;12204;50.600;4.608;2022-08-19T07:45:37;27.80;58.90
22416;DHT22;12204;50.600;4.608;2022-08-19T07:50:43;27.80;58.80
22416;DHT22;12204;50.600;4.608;2022-08-19T07:55:47;27.80;58.80
22416;DHT22;12204;50.600;4.608;2022-08-19T08:00:51;27.80;58.90
22416;DHT22;12204;50.600;4.608;2022-08-19T08:05:56;27.80;58.90
22416;DHT22;12204;50.600;4.608;2022-08-19T08:11:19;27.80;58.90
22416;DHT22;12204;50.600;4.608;2022-08-19T08:16:25;27.80;59.00
22416;DHT22;12204;50.600;4.608;2022-08-19T08:21:34;27.80;59.00
22416;DHT22;12204;50.600;4.608;2022-08-19T08:26:39;27.80;58.90
22416;DHT22;12204;50.600;4.608;2022-08-19T08:31:52;27.80;58.90
22416;DHT22;12204;50.600;4.608;2022-08-19T08:37:02;27.80;59.00
22416;DHT22;12204;50.600;4.608;2022-08-19T08:42:10;27.80;59.00
22416;DHT22;12204;50.600;4.608;2022-08-19T08:47:22;27.80;58.90
22416;DHT22;12204;50.600;4.608;2022-08-19T08:52:30;27.80;59.60
22416;DHT22;12204;50.600;4.608;2022-08-19T08:57:40;27.80;59.00
22416;DHT22;12204;50.600;4.608;2022-08-19T09:02:59;27.80;59.10
22416;DHT22;12204;50.600;4.608;2022-08-19T09:08:10;27.80;59.10
22416;DHT22;12204;50.600;4.608;2022-08-19T09:13:26;27.80;59.10
22416;DHT22;12204;50.600;4.608;2022-08-19T09:18:40;27.80;59.10
22416;DHT22;12204;50.600;4.608;2022-08-19T09:23:49;27.80;59.20
22416;DHT22;12204;50.600;4.608;2022-08-19T09:28:53;27.80;59.20
22416;DHT22;12204;50.600;4.608;2022-08-19T09:33:59;27.80;59.30
22416;DHT22;12204;50.600;4.608;2022-08-19T09:39:08;27.80;59.20
22416;DHT22;12204;50.600;4.608;2022-08-19T09:44:17;27.80;59.30
22416;DHT22;12204;50.600;4.608;2022-08-19T09:49:22;27.70;59.30
22416;DHT22;12204;50.600;4.608;2022-08-19T09:54:28;27.80;59.40
22416;DHT22;12204;50.600;4.608;2022-08-19T09:59:31;27.80;59.50
22416;DHT22;12204;50.600;4.608;2022-08-19T10:04:35;27.80;59.50
22416;DHT22;12204;50.600;4.608;2022-08-19T10:09:58;27.80;59.50
22416;DHT22;12204;50.600;4.608;2022-08-19T10:15:03;27.80;59.60
22416;DHT22;12204;50.600;4.608;2022-08-19T10:20:09;27.80;59.60
22416;DHT22;12204;50.600;4.608;2022-08-19T10:25:15;27.80;59.70
22416;DHT22;12204;50.600;4.608;2022-08-19T10:30:20;27.80;59.70
22416;DHT22;12204;50.600;4.608;2022-08-19T10:35:25;27.70;59.70
22416;DHT22;12204;50.600;4.608;2022-08-19T10:40:45;27.80;59.70
22416;DHT22;12204;50.600;4.608;2022-08-19T10:45:52;27.80;59.80
22416;DHT22;12204;50.600;4.608;2022-08-19T10:50:58;27.70;59.90
22416;DHT22;12204;50.600;4.608;2022-08-19T10:56:25;27.80;59.90
22416;DHT22;12204;50.600;4.608;2022-08-19T11:01:48;27.80;60.00
22416;DHT22;12204;50.600;4.608;2022-08-19T11:06:56;27.80;60.00
22416;DHT22;12204;50.600;4.608;2022-08-19T11:12:02;27.80;60.00
22416;DHT22;12204;50.600;4.608;2022-08-19T11:17:06;27.80;60.00
22416;DHT22;12204;50.600;4.608;2022-08-19T11:22:10;27.80;60.10
22416;DHT22;12204;50.600;4.608;2022-08-19T11:27:21;27.70;60.10
22416;DHT22;12204;50.600;4.608;2022-08-19T11:32:25;27.80;60.20
22416;DHT22;12204;50.600;4.608;2022-08-19T11:37:29;27.80;60.10
22416;DHT22;12204;50.600;4.608;2022-08-19T11:42:40;27.80;60.20
22416;DHT22;12204;50.600;4.608;2022-08-19T11:47:59;27.70;60.20
22416;DHT22;12204;50.600;4.608;2022-08-19T11:53:03;27.80;60.30
22416;DHT22;12204;50.600;4.608;2022-08-19T11:58:12;27.70;60.30
22416;DHT22;12204;50.600;4.608;2022-08-19T12:03:20;27.70;60.20
22416;DHT22;12204;50.600;4.608;2022-08-19T12:08:24;27.70;60.30
22416;DHT22;12204;50.600;4.608;2022-08-19T12:13:30;27.80;60.40
22416;DHT22;12204;50.600;4.608;2022-08-19T12:18:34;27.80;60.50
22416;DHT22;12204;50.600;4.608;2022-08-19T12:23:38;27.80;60.50
22416;DHT22;12204;50.600;4.608;2022-08-19T12:28:43;27.80;60.60
22416;DHT22;12204;50.600;4.608;2022-08-19T12:33:47;27.80;60.50
22416;DHT22;12204;50.600;4.608;2022-08-19T12:38:51;27.80;60.50
22416;DHT22;12204;50.600;4.608;2022-08-19T12:43:57;27.80;60.60
22416;DHT22;12204;50.600;4.608;2022-08-19T12:49:01;27.80;61.30
22416;DHT22;12204;50.600;4.608;2022-08-19T12:54:25;27.70;60.60
22416;DHT22;12204;50.600;4.608;2022-08-19T12:59:30;27.80;60.60
22416;DHT22;12204;50.600;4.608;2022-08-19T13:04:35;27.80;60.60
22416;DHT22;12204;50.600;4.608;2022-08-19T13:09:42;27.80;60.60
22416;DHT22;12204;50.600;4.608;2022-08-19T13:14:48;27.80;60.60
22416;DHT22;12204;50.600;4.608;2022-08-19T13:19:52;27.80;60.70
22416;DHT22;12204;50.600;4.608;2022-08-19T13:24:56;27.80;60.60
22416;DHT22;12204;50.600;4.608;2022-08-19T13:30:04;27.80;60.50
22416;DHT22;12204;50.600;4.608;2022-08-19T13:35:40;27.80;60.60
22416;DHT22;12204;50.600;4.608;2022-08-19T13:40:51;27.80;60.50
22416;DHT22;12204;50.600;4.608;2022-08-19T13:45:59;27.80;60.40
22416;DHT22;12204;50.600;4.608;2022-08-19T13:51:05;27.80;60.40
22416;DHT22;12204;50.600;4.608;2022-08-19T13:56:13;27.80;60.40
22416;DHT22;12204;50.600;4.608;2022-08-19T14:01:28;27.80;60.40
22416;DHT22;12204;50.600;4.608;2022-08-19T14:06:32;27.80;60.40
22416;DHT22;12204;50.600;4.608;2022-08-19T14:11:36;27.80;60.40
22416;DHT22;12204;50.600;4.608;2022-08-19T14:16:41;27.80;60.40
22416;DHT22;12204;50.600;4.608;2022-08-19T14:21:45;27.80;60.40
22416;DHT22;12204;50.600;4.608;2022-08-19T14:26:49;27.90;60.60
22416;DHT22;12204;50.600;4.608;2022-08-19T14:31:54;27.80;60.50
22416;DHT22;12204;50.600;4.608;2022-08-19T14:37:01;27.80;60.50
22416;DHT22;12204;50.600;4.608;2022-08-19T14:42:06;27.80;60.60
22416;DHT22;12204;50.600;4.608;2022-08-19T14:47:14;27.80;60.90
22416;DHT22;12204;50.600;4.608;2022-08-19T14:52:18;27.80;61.20
22416;DHT22;12204;50.600;4.608;2022-08-19T14:57:22;27.80;61.30
22416;DHT22;12204;50.600;4.608;2022-08-19T15:02:27;27.80;61.40
22416;DHT22;12204;50.600;4.608;2022-08-19T15:07:36;27.80;61.50
22416;DHT22;12204;50.600;4.608;2022-08-19T15:12:41;27.80;61.60
22416;DHT22;12204;50.600;4.608;2022-08-19T15:17:52;27.80;61.70
22416;DHT22;12204;50.600;4.608;2022-08-19T15:22:55;27.80;62.00
22416;DHT22;12204;50.600;4.608;2022-08-19T15:28:00;27.80;62.00
22416;DHT22;12204;50.600;4.608;2022-08-19T15:33:07;27.80;62.00
22416;DHT22;12204;50.600;4.608;2022-08-19T15:38:11;27.80;62.20
22416;DHT22;12204;50.600;4.608;2022-08-19T15:43:16;27.80;62.10
22416;DHT22;12204;50.600;4.608;2022-08-19T15:48:24;27.80;62.10
22416;DHT22;12204;50.600;4.608;2022-08-19T15:53:28;27.80;62.10
22416;DHT22;12204;50.600;4.608;2022-08-19T15:58:32;27.80;62.00
22416;DHT22;12204;50.600;4.608;2022-08-19T16:03:56;27.80;62.10
22416;DHT22;12204;50.600;4.608;2022-08-19T16:09:22;27.80;62.00
22416;DHT22;12204;50.600;4.608;2022-08-19T16:14:31;27.80;61.90
22416;DHT22;12204;50.600;4.608;2022-08-19T16:19:38;27.80;61.80
22416;DHT22;12204;50.600;4.608;2022-08-19T16:24:42;27.90;61.80
22416;DHT22;12204;50.600;4.608;2022-08-19T16:29:46;27.90;61.80
22416;DHT22;12204;50.600;4.608;2022-08-19T16:34:52;27.90;61.90
22416;DHT22;12204;50.600;4.608;2022-08-19T16:39:56;27.80;61.90
22416;DHT22;12204;50.600;4.608;2022-08-19T16:45:00;27.90;61.90
22416;DHT22;12204;50.600;4.608;2022-08-19T16:50:07;27.90;62.00
22416;DHT22;12204;50.600;4.608;2022-08-19T16:55:12;27.90;62.00
22416;DHT22;12204;50.600;4.608;2022-08-19T17:00:16;27.90;61.90
22416;DHT22;12204;50.600;4.608;2022-08-19T17:05:22;27.90;61.90
22416;DHT22;12204;50.600;4.608;2022-08-19T17:10:26;27.90;61.90
22416;DHT22;12204;50.600;4.608;2022-08-19T17:15:30;27.90;61.90
22416;DHT22;12204;50.600;4.608;2022-08-19T17:20:36;27.90;61.90
22416;DHT22;12204;50.600;4.608;2022-08-19T17:25:40;27.90;62.00
22416;DHT22;12204;50.600;4.608;2022-08-19T17:30:44;27.90;62.10
22416;DHT22;12204;50.600;4.608;2022-08-19T17:35:49;27.90;62.00
22416;DHT22;12204;50.600;4.608;2022-08-19T17:40:54;27.90;62.10
22416;DHT22;12204;50.600;4.608;2022-08-19T17:46:06;27.90;62.10
22416;DHT22;12204;50.600;4.608;2022-08-19T17:51:15;27.80;62.00
22416;DHT22;12204;50.600;4.608;2022-08-19T17:56:23;27.80;62.00
22416;DHT22;12204;50.600;4.608;2022-08-19T18:01:29;27.80;62.00
22416;DHT22;12204;50.600;4.608;2022-08-19T18:06:55;27.80;62.00
22416;DHT22;12204;50.600;4.608;2022-08-19T18:11:59;27.80;62.00
22416;DHT22;12204;50.600;4.608;2022-08-19T18:17:06;27.80;62.00
22416;DHT22;12204;50.600;4.608;2022-08-19T18:22:23;27.80;62.10
22416;DHT22;12204;50.600;4.608;2022-08-19T18:27:29;27.80;62.20
22416;DHT22;12204;50.600;4.608;2022-08-19T18:32:33;27.80;62.20
22416;DHT22;12204;50.600;4.608;2022-08-19T18:37:43;27.80;62.20
22416;DHT22;12204;50.600;4.608;2022-08-19T18:42:47;27.80;62.30
22416;DHT22;12204;50.600;4.608;2022-08-19T18:48:08;27.80;62.30
22416;DHT22;12204;50.600;4.608;2022-08-19T18:53:34;27.80;62.40
22416;DHT22;12204;50.600;4.608;2022-08-19T18:58:41;27.80;62.40
22416;DHT22;12204;50.600;4.608;2022-08-19T19:03:47;27.70;62.40
22416;DHT22;12204;50.600;4.608;2022-08-19T19:08:55;27.70;62.50
22416;DHT22;12204;50.600;4.608;2022-08-19T19:14:02;27.70;62.60
22416;DHT22;12204;50.600;4.608;2022-08-19T19:19:24;27.70;62.60
22416;DHT22;12204;50.600;4.608;2022-08-19T19:24:32;27.70;62.60
22416;DHT22;12204;50.600;4.608;2022-08-19T19:29:39;27.70;62.90
22416;DHT22;12204;50.600;4.608;2022-08-19T19:34:44;27.70;62.90
22416;DHT22;12204;50.600;4.608;2022-08-19T19:39:50;27.70;62.90
22416;DHT22;12204;50.600;4.608;2022-08-19T19:44:54;27.70;63.00
22416;DHT22;12204;50.600;4.608;2022-08-19T19:49:59;27.70;63.10
22416;DHT22;12204;50.600;4.608;2022-08-19T19:55:20;27.70;63.00
22416;DHT22;12204;50.600;4.608;2022-08-19T20:00:27;27.70;63.10
22416;DHT22;12204;50.600;4.608;2022-08-19T20:05:31;27.70;63.20
22416;DHT22;12204;50.600;4.608;2022-08-19T20:10:37;27.70;63.30
22416;DHT22;12204;50.600;4.608;2022-08-19T20:15:41;27.70;63.30
22416;DHT22;12204;50.600;4.608;2022-08-19T20:20:45;27.70;63.50
22416;DHT22;12204;50.600;4.608;2022-08-19T20:25:52;27.70;63.60
22416;DHT22;12204;50.600;4.608;2022-08-19T20:30:57;27.60;63.40
22416;DHT22;12204;50.600;4.608;2022-08-19T20:36:02;27.60;63.50
22416;DHT22;12204;50.600;4.608;2022-08-19T20:41:08;27.60;63.50
22416;DHT22;12204;50.600;4.608;2022-08-19T20:46:12;27.60;63.60
22416;DHT22;12204;50.600;4.608;2022-08-19T20:51:16;27.60;63.50
22416;DHT22;12204;50.600;4.608;2022-08-19T20:56:21;27.60;63.50
22416;DHT22;12204;50.600;4.608;2022-08-19T21:01:25;27.60;63.50
22416;DHT22;12204;50.600;4.608;2022-08-19T21:06:29;27.60;63.50
22416;DHT22;12204;50.600;4.608;2022-08-19T21:11:34;27.60;63.50
22416;DHT22;12204;50.600;4.608;2022-08-19T21:16:38;27.60;63.50
22416;DHT22;12204;50.600;4.608;2022-08-19T21:21:42;27.60;63.50
22416;DHT22;12204;50.600;4.608;2022-08-19T21:26:47;27.60;63.50
22416;DHT22;12204;50.600;4.608;2022-08-19T21:31:52;27.60;63.50
22416;DHT22;12204;50.600;4.608;2022-08-19T21:36:56;27.60;63.50
22416;DHT22;12204;50.600;4.608;2022-08-19T21:42:01;27.60;63.50
22416;DHT22;12204;50.600;4.608;2022-08-19T21:47:05;27.60;63.50
22416;DHT22;12204;50.600;4.608;2022-08-19T21:52:11;27.60;63.50
22416;DHT22;12204;50.600;4.608;2022-08-19T21:57:17;27.50;63.50
22416;DHT22;12204;50.600;4.608;2022-08-19T22:02:21;27.50;63.50
22416;DHT22;12204;50.600;4.608;2022-08-19T22:07:25;27.60;63.60
22416;DHT22;12204;50.600;4.608;2022-08-19T22:12:33;27.50;63.50
22416;DHT22;12204;50.600;4.608;2022-08-19T22:17:48;27.60;63.60
22416;DHT22;12204;50.600;4.608;2022-08-19T22:22:54;27.50;63.40
22416;DHT22;12204;50.600;4.608;2022-08-19T22:28:06;27.50;63.50
22416;DHT22;12204;50.600;4.608;2022-08-19T22:33:16;27.50;63.60
22416;DHT22;12204;50.600;4.608;2022-08-19T22:38:22;27.50;63.50
22416;DHT22;12204;50.600;4.608;2022-08-19T22:43:28;27.50;63.60
22416;DHT22;12204;50.600;4.608;2022-08-19T22:48:35;27.50;63.50
22416;DHT22;12204;50.600;4.608;2022-08-19T22:53:40;27.50;63.40
22416;DHT22;12204;50.600;4.608;2022-08-19T22:58:48;27.50;63.40
22416;DHT22;12204;50.600;4.608;2022-08-19T23:03:52;27.50;63.30
22416;DHT22;12204;50.600;4.608;2022-08-19T23:08:57;27.50;63.20
22416;DHT22;12204;50.600;4.608;2022-08-19T23:14:03;27.50;63.20
22416;DHT22;12204;50.600;4.608;2022-08-19T23:19:10;27.50;62.90
22416;DHT22;12204;50.600;4.608;2022-08-19T23:24:14;27.50;62.80
22416;DHT22;12204;50.600;4.608;2022-08-19T23:29:19;27.40;62.80
22416;DHT22;12204;50.600;4.608;2022-08-19T23:34:40;27.40;62.60
22416;DHT22;12204;50.600;4.608;2022-08-19T23:39:44;27.40;62.50
22416;DHT22;12204;50.600;4.608;2022-08-19T23:44:49;27.40;62.40
22416;DHT22;12204;50.600;4.608;2022-08-19T23:49:54;27.40;62.30
22416;DHT22;12204;50.600;4.608;2022-08-19T23:54:59;27.40;62.20
